sensor_id;sensor_type;location;lat;lon;timestamp;pressure;altitude;pressure_sealevel;temperature;humidity
10115;BME280;5097;43.260;27.812;2022-11-24T00:01:26;99113.03;;;11.45;88.02
10115;BME280;5097;43.260;27.812;2022-11-24T00:04:10;99153.78;;;11.66;86.91
10115;BME280;5097;43.260;27.812;2022-11-24T00:06:55;99153.47;;;11.71;87.49
10115;BME280;5097;43.260;27.812;2022-11-24T00:09:39;99155.09;;;11.61;87.27
10115;BME280;5097;43.260;27.812;2022-11-24T00:12:23;99134.81;;;11.24;86.92
10115;BME280;5097;43.260;27.812;2022-11-24T00:15:07;99144.91;;;10.93;88.23
10115;BME280;5097;43.260;27.812;2022-11-24T00:17:51;99155.44;;;11.19;87.29
10115;BME280;5097;43.260;27.812;2022-11-24T00:20:34;99153.03;;;11.16;87.56
10115;BME280;5097;43.260;27.812;2022-11-24T00:23:19;99144.16;;;10.91;88.22
10115;BME280;5097;43.260;27.812;2022-11-24T00:26:05;99146.34;;;11.10;87.80
10115;BME280;5097;43.260;27.812;2022-11-24T00:28:51;99137.25;;;11.14;88.06
10115;BME280;5097;43.260;27.812;2022-11-24T00:31:36;99146.97;;;11.14;88.01
10115;BME280;5097;43.260;27.812;2022-11-24T00:34:20;99147.25;;;10.72;88.96
10115;BME280;5097;43.260;27.812;2022-11-24T00:37:04;99146.28;;;10.86;88.79
10115;BME280;5097;43.260;27.812;2022-11-24T00:39:49;99149.34;;;11.05;88.17
10115;BME280;5097;43.260;27.812;2022-11-24T00:42:33;99137.28;;;11.01;87.68
10115;BME280;5097;43.260;27.812;2022-11-24T00:45:17;99142.63;;;10.76;88.38
10115;BME280;5097;43.260;27.812;2022-11-24T00:48:00;99155.25;;;10.83;88.61
10115;BME280;5097;43.260;27.812;2022-11-24T00:50:54;99154.00;;;10.89;88.60
10115;BME280;5097;43.260;27.812;2022-11-24T00:53:38;99145.53;;;10.97;88.73
10115;BME280;5097;43.260;27.812;2022-11-24T00:56:24;99128.31;;;11.04;87.93
10115;BME280;5097;43.260;27.812;2022-11-24T00:59:08;99147.09;;;11.12;87.86
10115;BME280;5097;43.260;27.812;2022-11-24T01:01:52;99154.00;;;10.89;87.17
10115;BME280;5097;43.260;27.812;2022-11-24T01:04:36;99148.41;;;10.81;88.70
10115;BME280;5097;43.260;27.812;2022-11-24T01:07:20;99157.59;;;10.75;89.63
10115;BME280;5097;43.260;27.812;2022-11-24T01:10:05;99163.91;;;10.98;88.52
10115;BME280;5097;43.260;27.812;2022-11-24T01:12:50;99166.34;;;11.01;88.52
10115;BME280;5097;43.260;27.812;2022-11-24T01:15:34;99164.44;;;11.03;88.65
10115;BME280;5097;43.260;27.812;2022-11-24T01:18:18;99009.53;;;10.01;87.61
10115;BME280;5097;43.260;27.812;2022-11-24T01:21:03;99159.50;;;10.99;87.60
10115;BME280;5097;43.260;27.812;2022-11-24T01:23:52;99148.84;;;10.62;88.13
10115;BME280;5097;43.260;27.812;2022-11-24T01:26:36;99151.91;;;10.68;88.43
10115;BME280;5097;43.260;27.812;2022-11-24T01:29:21;99150.00;;;10.70;87.89
10115;BME280;5097;43.260;27.812;2022-11-24T01:32:05;99149.16;;;10.57;87.75
10115;BME280;5097;43.260;27.812;2022-11-24T01:34:49;99141.13;;;10.59;89.43
10115;BME280;5097;43.260;27.812;2022-11-24T01:37:33;99137.94;;;10.79;88.74
10115;BME280;5097;43.260;27.812;2022-11-24T01:40:17;99139.41;;;10.83;88.42
10115;BME280;5097;43.260;27.812;2022-11-24T01:43:00;99141.63;;;10.77;89.11
10115;BME280;5097;43.260;27.812;2022-11-24T01:45:47;99140.81;;;10.63;89.99
10115;BME280;5097;43.260;27.812;2022-11-24T01:48:35;99142.19;;;10.69;90.66
10115;BME280;5097;43.260;27.812;2022-11-24T01:51:23;99122.94;;;10.54;90.24
10115;BME280;5097;43.260;27.812;2022-11-24T01:54:11;99128.00;;;10.83;89.37
10115;BME280;5097;43.260;27.812;2022-11-24T01:56:59;99126.09;;;10.85;88.91
10115;BME280;5097;43.260;27.812;2022-11-24T01:59:46;99128.84;;;10.83;88.82
10115;BME280;5097;43.260;27.812;2022-11-24T02:02:37;99121.25;;;10.79;88.21
10115;BME280;5097;43.260;27.812;2022-11-24T02:05:25;99128.88;;;10.70;88.77
10115;BME280;5097;43.260;27.812;2022-11-24T02:08:15;99134.16;;;10.70;88.50
10115;BME280;5097;43.260;27.812;2022-11-24T02:11:01;99108.50;;;10.47;89.35
10115;BME280;5097;43.260;27.812;2022-11-24T02:13:50;99124.53;;;10.69;88.63
10115;BME280;5097;43.260;27.812;2022-11-24T02:16:36;99120.84;;;10.72;88.80
10115;BME280;5097;43.260;27.812;2022-11-24T02:19:29;99125.38;;;10.83;88.06
10115;BME280;5097;43.260;27.812;2022-11-24T02:22:30;99121.97;;;10.81;88.30
10115;BME280;5097;43.260;27.812;2022-11-24T02:25:23;99121.47;;;10.76;87.90
10115;BME280;5097;43.260;27.812;2022-11-24T02:28:12;99119.97;;;10.71;88.56
10115;BME280;5097;43.260;27.812;2022-11-24T02:30:57;99085.56;;;10.60;88.31
10115;BME280;5097;43.260;27.812;2022-11-24T02:33:42;99113.56;;;10.76;87.95
10115;BME280;5097;43.260;27.812;2022-11-24T02:36:26;99109.75;;;10.54;88.36
10115;BME280;5097;43.260;27.812;2022-11-24T02:39:11;99111.97;;;10.60;88.89
10115;BME280;5097;43.260;27.812;2022-11-24T02:41:57;99085.97;;;10.28;88.77
10115;BME280;5097;43.260;27.812;2022-11-24T02:44:48;99097.19;;;10.45;88.28
10115;BME280;5097;43.260;27.812;2022-11-24T02:47:33;99111.44;;;10.42;88.71
10115;BME280;5097;43.260;27.812;2022-11-24T02:50:17;99070.75;;;10.19;88.60
10115;BME280;5097;43.260;27.812;2022-11-24T02:53:01;99135.09;;;10.56;88.42
10115;BME280;5097;43.260;27.812;2022-11-24T02:55:45;99133.31;;;10.57;88.60
10115;BME280;5097;43.260;27.812;2022-11-24T02:58:28;99133.31;;;10.44;88.28
10115;BME280;5097;43.260;27.812;2022-11-24T03:01:13;99119.88;;;10.34;88.54
10115;BME280;5097;43.260;27.812;2022-11-24T03:03:57;99123.81;;;10.42;88.40
10115;BME280;5097;43.260;27.812;2022-11-24T03:06:41;99127.47;;;10.26;89.21
10115;BME280;5097;43.260;27.812;2022-11-24T03:09:25;99126.41;;;10.16;89.65
10115;BME280;5097;43.260;27.812;2022-11-24T03:12:09;99128.72;;;10.07;90.14
10115;BME280;5097;43.260;27.812;2022-11-24T03:14:53;99141.91;;;10.20;88.98
10115;BME280;5097;43.260;27.812;2022-11-24T03:17:38;99136.63;;;10.20;89.72
10115;BME280;5097;43.260;27.812;2022-11-24T03:20:22;99144.09;;;10.14;90.62
10115;BME280;5097;43.260;27.812;2022-11-24T03:23:06;99142.13;;;10.17;90.29
10115;BME280;5097;43.260;27.812;2022-11-24T03:25:49;99140.75;;;10.24;90.02
10115;BME280;5097;43.260;27.812;2022-11-24T03:28:33;99139.16;;;10.22;90.63
10115;BME280;5097;43.260;27.812;2022-11-24T03:31:17;99122.31;;;10.37;89.97
10115;BME280;5097;43.260;27.812;2022-11-24T03:34:02;99130.88;;;10.41;89.15
10115;BME280;5097;43.260;27.812;2022-11-24T03:36:46;99142.50;;;10.38;89.45
10115;BME280;5097;43.260;27.812;2022-11-24T03:39:30;99145.50;;;10.32;89.29
10115;BME280;5097;43.260;27.812;2022-11-24T03:42:14;99115.38;;;9.83;89.72
10115;BME280;5097;43.260;27.812;2022-11-24T03:44:58;99157.03;;;9.78;90.90
10115;BME280;5097;43.260;27.812;2022-11-24T03:48:01;99173.84;;;9.90;90.30
10115;BME280;5097;43.260;27.812;2022-11-24T03:50:53;99170.25;;;9.64;90.31
10115;BME280;5097;43.260;27.812;2022-11-24T03:53:38;99187.25;;;9.45;90.88
10115;BME280;5097;43.260;27.812;2022-11-24T03:56:22;99196.16;;;9.01;93.10
10115;BME280;5097;43.260;27.812;2022-11-24T03:59:06;99152.22;;;8.72;93.31
10115;BME280;5097;43.260;27.812;2022-11-24T04:01:50;99139.59;;;8.49;93.69
10115;BME280;5097;43.260;27.812;2022-11-24T04:04:34;99139.97;;;8.43;94.80
10115;BME280;5097;43.260;27.812;2022-11-24T04:07:19;99136.22;;;8.47;95.70
10115;BME280;5097;43.260;27.812;2022-11-24T04:10:04;99151.63;;;8.38;97.13
10115;BME280;5097;43.260;27.812;2022-11-24T04:12:48;99193.94;;;8.50;98.28
10115;BME280;5097;43.260;27.812;2022-11-24T04:15:31;99167.81;;;8.47;96.61
10115;BME280;5097;43.260;27.812;2022-11-24T04:18:15;99161.13;;;8.55;95.08
10115;BME280;5097;43.260;27.812;2022-11-24T04:20:59;99195.41;;;8.84;95.24
10115;BME280;5097;43.260;27.812;2022-11-24T04:23:45;99203.75;;;8.62;96.47
10115;BME280;5097;43.260;27.812;2022-11-24T04:26:29;99201.09;;;8.62;97.34
10115;BME280;5097;43.260;27.812;2022-11-24T04:29:12;99189.19;;;8.85;95.57
10115;BME280;5097;43.260;27.812;2022-11-24T04:31:56;99212.31;;;8.95;95.29
10115;BME280;5097;43.260;27.812;2022-11-24T04:34:40;99207.16;;;9.08;94.75
10115;BME280;5097;43.260;27.812;2022-11-24T04:37:24;99227.50;;;9.05;94.98
10115;BME280;5097;43.260;27.812;2022-11-24T04:40:10;99194.53;;;8.84;95.79
10115;BME280;5097;43.260;27.812;2022-11-24T04:42:54;99214.19;;;8.78;96.24
10115;BME280;5097;43.260;27.812;2022-11-24T04:45:38;99214.94;;;8.95;96.94
10115;BME280;5097;43.260;27.812;2022-11-24T04:48:22;99217.03;;;8.89;98.09
10115;BME280;5097;43.260;27.812;2022-11-24T04:51:06;99191.75;;;8.87;98.12
10115;BME280;5097;43.260;27.812;2022-11-24T04:53:49;99210.56;;;9.10;97.52
10115;BME280;5097;43.260;27.812;2022-11-24T04:56:35;99208.84;;;9.23;97.05
10115;BME280;5097;43.260;27.812;2022-11-24T04:59:19;99195.28;;;9.29;96.53
10115;BME280;5097;43.260;27.812;2022-11-24T05:02:02;99215.06;;;9.22;97.35
10115;BME280;5097;43.260;27.812;2022-11-24T05:04:46;99206.34;;;9.49;96.10
10115;BME280;5097;43.260;27.812;2022-11-24T05:07:30;99239.59;;;9.51;95.83
10115;BME280;5097;43.260;27.812;2022-11-24T05:10:15;99233.28;;;9.54;96.19
10115;BME280;5097;43.260;27.812;2022-11-24T05:13:18;99245.13;;;9.61;95.90
10115;BME280;5097;43.260;27.812;2022-11-24T05:16:02;99249.06;;;9.68;94.56
10115;BME280;5097;43.260;27.812;2022-11-24T05:18:45;99255.66;;;9.76;94.78
10115;BME280;5097;43.260;27.812;2022-11-24T05:21:29;99217.41;;;9.68;92.77
10115;BME280;5097;43.260;27.812;2022-11-24T05:24:13;99255.44;;;9.79;92.77
10115;BME280;5097;43.260;27.812;2022-11-24T05:26:57;99255.19;;;9.96;92.59
10115;BME280;5097;43.260;27.812;2022-11-24T05:29:42;99260.81;;;9.77;92.78
10115;BME280;5097;43.260;27.812;2022-11-24T05:32:26;99257.13;;;9.94;92.50
10115;BME280;5097;43.260;27.812;2022-11-24T05:35:10;99260.44;;;9.83;93.00
10115;BME280;5097;43.260;27.812;2022-11-24T05:37:56;99261.47;;;9.81;94.07
10115;BME280;5097;43.260;27.812;2022-11-24T05:40:40;99263.72;;;9.87;93.59
10115;BME280;5097;43.260;27.812;2022-11-24T05:43:24;99261.28;;;9.84;93.25
10115;BME280;5097;43.260;27.812;2022-11-24T05:46:09;99258.84;;;9.81;93.69
10115;BME280;5097;43.260;27.812;2022-11-24T05:48:53;99270.41;;;9.93;92.97
10115;BME280;5097;43.260;27.812;2022-11-24T05:51:37;99258.28;;;9.76;93.36
10115;BME280;5097;43.260;27.812;2022-11-24T05:54:21;99273.06;;;9.78;93.48
10115;BME280;5097;43.260;27.812;2022-11-24T05:57:04;99271.34;;;9.92;92.95
10115;BME280;5097;43.260;27.812;2022-11-24T05:59:48;99283.81;;;10.17;92.29
10115;BME280;5097;43.260;27.812;2022-11-24T06:02:33;99281.50;;;10.25;91.79
10115;BME280;5097;43.260;27.812;2022-11-24T06:05:18;99286.06;;;10.09;92.24
10115;BME280;5097;43.260;27.812;2022-11-24T06:08:01;99287.31;;;10.03;93.91
10115;BME280;5097;43.260;27.812;2022-11-24T06:10:45;99296.41;;;10.26;93.48
10115;BME280;5097;43.260;27.812;2022-11-24T06:13:29;99300.44;;;10.59;91.54
10115;BME280;5097;43.260;27.812;2022-11-24T06:16:13;99304.09;;;10.44;92.38
10115;BME280;5097;43.260;27.812;2022-11-24T06:18:59;99305.72;;;10.59;92.27
10115;BME280;5097;43.260;27.812;2022-11-24T06:21:42;99307.94;;;10.65;91.45
10115;BME280;5097;43.260;27.812;2022-11-24T06:24:26;99269.34;;;10.50;91.23
10115;BME280;5097;43.260;27.812;2022-11-24T06:27:10;99299.09;;;10.79;91.24
10115;BME280;5097;43.260;27.812;2022-11-24T06:29:54;99299.84;;;10.94;91.30
10115;BME280;5097;43.260;27.812;2022-11-24T06:32:38;99314.34;;;11.01;90.64
10115;BME280;5097;43.260;27.812;2022-11-24T06:35:32;99318.69;;;11.28;89.50
10115;BME280;5097;43.260;27.812;2022-11-24T06:38:16;99318.28;;;11.21;90.03
10115;BME280;5097;43.260;27.812;2022-11-24T06:41:08;99318.06;;;11.24;90.32
10115;BME280;5097;43.260;27.812;2022-11-24T06:43:52;99320.59;;;11.26;90.95
10115;BME280;5097;43.260;27.812;2022-11-24T06:46:36;99310.22;;;11.49;90.21
10115;BME280;5097;43.260;27.812;2022-11-24T06:49:20;99312.97;;;11.34;90.26
10115;BME280;5097;43.260;27.812;2022-11-24T06:52:05;99323.13;;;11.40;89.30
10115;BME280;5097;43.260;27.812;2022-11-24T06:54:49;99322.06;;;11.56;89.21
10115;BME280;5097;43.260;27.812;2022-11-24T06:57:35;99304.03;;;11.74;88.04
10115;BME280;5097;43.260;27.812;2022-11-24T07:00:19;99329.72;;;11.85;87.74
10115;BME280;5097;43.260;27.812;2022-11-24T07:03:04;99302.97;;;11.77;87.08
10115;BME280;5097;43.260;27.812;2022-11-24T07:05:48;99322.22;;;11.79;87.69
10115;BME280;5097;43.260;27.812;2022-11-24T07:08:33;99277.16;;;11.80;87.41
10115;BME280;5097;43.260;27.812;2022-11-24T07:11:19;99310.97;;;11.88;87.94
10115;BME280;5097;43.260;27.812;2022-11-24T07:14:04;99308.47;;;12.23;87.04
10115;BME280;5097;43.260;27.812;2022-11-24T07:16:48;99307.56;;;12.12;86.94
10115;BME280;5097;43.260;27.812;2022-11-24T07:19:32;99300.75;;;12.20;87.75
10115;BME280;5097;43.260;27.812;2022-11-24T07:22:16;99269.28;;;12.04;87.39
10115;BME280;5097;43.260;27.812;2022-11-24T07:25:01;99281.88;;;12.25;87.92
10115;BME280;5097;43.260;27.812;2022-11-24T07:27:48;99296.41;;;12.44;86.87
10115;BME280;5097;43.260;27.812;2022-11-24T07:30:32;99304.56;;;12.65;87.01
10115;BME280;5097;43.260;27.812;2022-11-24T07:33:16;99304.09;;;12.71;86.08
10115;BME280;5097;43.260;27.812;2022-11-24T07:36:04;99302.72;;;12.54;87.35
10115;BME280;5097;43.260;27.812;2022-11-24T07:38:48;99284.75;;;12.22;87.92
10115;BME280;5097;43.260;27.812;2022-11-24T07:41:33;99295.47;;;12.20;87.04
10115;BME280;5097;43.260;27.812;2022-11-24T07:44:17;99303.72;;;12.16;87.22
10115;BME280;5097;43.260;27.812;2022-11-24T07:47:01;99277.75;;;11.97;86.68
10115;BME280;5097;43.260;27.812;2022-11-24T07:49:45;99280.38;;;12.10;86.22
10115;BME280;5097;43.260;27.812;2022-11-24T07:52:29;99310.16;;;12.49;85.46
10115;BME280;5097;43.260;27.812;2022-11-24T07:55:15;99327.56;;;12.64;83.49
10115;BME280;5097;43.260;27.812;2022-11-24T07:58:01;99270.34;;;12.26;82.28
10115;BME280;5097;43.260;27.812;2022-11-24T08:00:45;99326.88;;;12.73;83.24
10115;BME280;5097;43.260;27.812;2022-11-24T08:03:29;99323.63;;;13.28;81.42
10115;BME280;5097;43.260;27.812;2022-11-24T08:06:13;99281.94;;;13.41;79.88
10115;BME280;5097;43.260;27.812;2022-11-24T08:09:10;99322.78;;;13.96;79.23
10115;BME280;5097;43.260;27.812;2022-11-24T08:11:54;99289.63;;;13.90;78.02
10115;BME280;5097;43.260;27.812;2022-11-24T08:14:39;99287.84;;;13.90;77.09
10115;BME280;5097;43.260;27.812;2022-11-24T08:17:23;99293.00;;;13.92;76.90
10115;BME280;5097;43.260;27.812;2022-11-24T08:20:09;99323.16;;;14.02;77.28
10115;BME280;5097;43.260;27.812;2022-11-24T08:22:56;99323.44;;;13.88;77.00
10115;BME280;5097;43.260;27.812;2022-11-24T08:25:41;99296.66;;;13.80;77.96
10115;BME280;5097;43.260;27.812;2022-11-24T08:28:25;99287.56;;;13.94;77.04
10115;BME280;5097;43.260;27.812;2022-11-24T08:31:12;99286.88;;;13.80;77.85
10115;BME280;5097;43.260;27.812;2022-11-24T08:33:56;99288.19;;;13.97;78.02
10115;BME280;5097;43.260;27.812;2022-11-24T08:36:40;99277.78;;;13.94;76.90
10115;BME280;5097;43.260;27.812;2022-11-24T08:39:24;99276.56;;;14.10;77.04
10115;BME280;5097;43.260;27.812;2022-11-24T08:42:08;99271.47;;;14.18;77.07
10115;BME280;5097;43.260;27.812;2022-11-24T08:44:51;99291.41;;;14.45;76.92
10115;BME280;5097;43.260;27.812;2022-11-24T08:47:41;99312.94;;;14.30;77.67
10115;BME280;5097;43.260;27.812;2022-11-24T08:50:26;99299.50;;;14.75;76.82
10115;BME280;5097;43.260;27.812;2022-11-24T08:53:10;99277.75;;;14.82;74.29
10115;BME280;5097;43.260;27.812;2022-11-24T08:55:58;99326.13;;;14.97;75.00
10115;BME280;5097;43.260;27.812;2022-11-24T08:58:42;99300.44;;;15.07;75.54
10115;BME280;5097;43.260;27.812;2022-11-24T09:01:26;99332.59;;;14.83;76.96
10115;BME280;5097;43.260;27.812;2022-11-24T09:04:12;99329.56;;;14.55;77.28
10115;BME280;5097;43.260;27.812;2022-11-24T09:06:57;99323.03;;;14.48;78.72
10115;BME280;5097;43.260;27.812;2022-11-24T09:09:41;99326.97;;;14.21;78.74
10115;BME280;5097;43.260;27.812;2022-11-24T09:12:25;99307.56;;;14.09;78.45
10115;BME280;5097;43.260;27.812;2022-11-24T09:15:09;99326.75;;;14.24;77.91
10115;BME280;5097;43.260;27.812;2022-11-24T09:17:53;99320.91;;;14.30;77.95
10115;BME280;5097;43.260;27.812;2022-11-24T09:20:38;99303.81;;;14.23;77.81
10115;BME280;5097;43.260;27.812;2022-11-24T09:23:21;99314.59;;;14.42;76.41
10115;BME280;5097;43.260;27.812;2022-11-24T09:26:07;99325.47;;;14.51;76.91
10115;BME280;5097;43.260;27.812;2022-11-24T09:28:52;99318.19;;;14.53;77.31
10115;BME280;5097;43.260;27.812;2022-11-24T09:31:37;99309.00;;;14.57;76.38
10115;BME280;5097;43.260;27.812;2022-11-24T09:34:21;99323.94;;;14.69;75.92
10115;BME280;5097;43.260;27.812;2022-11-24T09:37:06;99317.63;;;14.82;76.24
10115;BME280;5097;43.260;27.812;2022-11-24T09:39:50;99327.25;;;14.83;76.35
10115;BME280;5097;43.260;27.812;2022-11-24T09:42:39;99329.63;;;14.97;74.58
10115;BME280;5097;43.260;27.812;2022-11-24T09:45:43;99318.84;;;14.78;75.99
10115;BME280;5097;43.260;27.812;2022-11-24T09:48:49;99309.44;;;14.62;77.16
10115;BME280;5097;43.260;27.812;2022-11-24T09:51:36;99316.63;;;14.50;77.61
10115;BME280;5097;43.260;27.812;2022-11-24T09:54:23;99325.94;;;14.88;76.25
10115;BME280;5097;43.260;27.812;2022-11-24T09:57:10;99332.69;;;14.93;75.37
10115;BME280;5097;43.260;27.812;2022-11-24T10:00:00;99317.09;;;14.88;74.83
10115;BME280;5097;43.260;27.812;2022-11-24T10:02:53;99283.63;;;14.64;76.69
10115;BME280;5097;43.260;27.812;2022-11-24T10:05:37;99311.41;;;15.14;76.10
10115;BME280;5097;43.260;27.812;2022-11-24T10:08:40;99319.50;;;15.43;75.01
10115;BME280;5097;43.260;27.812;2022-11-24T10:11:35;99308.19;;;15.20;75.35
10115;BME280;5097;43.260;27.812;2022-11-24T10:15:03;99317.22;;;15.81;74.24
10115;BME280;5097;43.260;27.812;2022-11-24T10:18:10;99313.22;;;16.16;73.09
10115;BME280;5097;43.260;27.812;2022-11-24T10:21:07;99315.50;;;16.30;72.83
10115;BME280;5097;43.260;27.812;2022-11-24T10:24:04;99310.84;;;16.32;72.52
10115;BME280;5097;43.260;27.812;2022-11-24T10:26:57;99312.25;;;16.36;72.64
10115;BME280;5097;43.260;27.812;2022-11-24T10:29:44;99314.78;;;16.28;71.89
10115;BME280;5097;43.260;27.812;2022-11-24T10:32:35;99310.00;;;16.22;72.36
10115;BME280;5097;43.260;27.812;2022-11-24T10:35:22;99312.50;;;16.14;72.72
10115;BME280;5097;43.260;27.812;2022-11-24T10:38:13;99314.03;;;16.06;73.46
10115;BME280;5097;43.260;27.812;2022-11-24T10:41:02;99331.47;;;15.49;72.57
10115;BME280;5097;43.260;27.812;2022-11-24T10:43:50;99338.56;;;15.38;72.45
10115;BME280;5097;43.260;27.812;2022-11-24T10:46:36;99309.38;;;15.27;73.05
10115;BME280;5097;43.260;27.812;2022-11-24T10:49:24;99330.78;;;14.39;75.82
10115;BME280;5097;43.260;27.812;2022-11-24T10:52:11;99306.25;;;14.03;76.50
10115;BME280;5097;43.260;27.812;2022-11-24T10:54:57;99340.25;;;14.32;75.81
10115;BME280;5097;43.260;27.812;2022-11-24T10:57:42;99338.50;;;13.65;77.61
10115;BME280;5097;43.260;27.812;2022-11-24T11:00:31;99347.19;;;13.55;78.11
10115;BME280;5097;43.260;27.812;2022-11-24T11:03:18;99335.63;;;13.68;79.04
10115;BME280;5097;43.260;27.812;2022-11-24T11:06:09;99351.41;;;13.47;79.46
10115;BME280;5097;43.260;27.812;2022-11-24T11:09:16;99341.78;;;13.68;78.42
10115;BME280;5097;43.260;27.812;2022-11-24T11:12:08;99286.09;;;12.87;79.60
10115;BME280;5097;43.260;27.812;2022-11-24T11:15:21;99356.59;;;12.90;80.93
10115;BME280;5097;43.260;27.812;2022-11-24T11:18:13;99331.66;;;12.68;82.47
10115;BME280;5097;43.260;27.812;2022-11-24T11:21:00;99345.38;;;12.98;81.66
10115;BME280;5097;43.260;27.812;2022-11-24T11:23:44;99350.13;;;12.70;82.56
10115;BME280;5097;43.260;27.812;2022-11-24T11:26:32;99329.91;;;12.45;83.11
10115;BME280;5097;43.260;27.812;2022-11-24T11:29:17;99345.13;;;12.30;84.53
10115;BME280;5097;43.260;27.812;2022-11-24T11:32:26;99337.53;;;12.85;81.08
10115;BME280;5097;43.260;27.812;2022-11-24T11:35:32;99349.59;;;12.89;80.92
10115;BME280;5097;43.260;27.812;2022-11-24T11:38:16;99335.50;;;13.58;79.48
10115;BME280;5097;43.260;27.812;2022-11-24T11:41:01;99313.59;;;13.20;79.02
10115;BME280;5097;43.260;27.812;2022-11-24T11:43:48;99348.88;;;13.56;77.38
10115;BME280;5097;43.260;27.812;2022-11-24T11:46:35;99321.25;;;13.36;76.83
10115;BME280;5097;43.260;27.812;2022-11-24T11:49:19;99351.44;;;13.92;76.26
10115;BME280;5097;43.260;27.812;2022-11-24T11:52:23;99318.97;;;14.00;75.47
10115;BME280;5097;43.260;27.812;2022-11-24T11:55:20;99349.13;;;14.54;73.26
10115;BME280;5097;43.260;27.812;2022-11-24T11:58:21;99319.34;;;14.71;72.32
10115;BME280;5097;43.260;27.812;2022-11-24T12:01:18;99356.97;;;14.88;71.97
10115;BME280;5097;43.260;27.812;2022-11-24T12:04:15;99348.19;;;14.44;73.12
10115;BME280;5097;43.260;27.812;2022-11-24T12:07:31;99351.66;;;13.44;76.27
10115;BME280;5097;43.260;27.812;2022-11-24T12:10:25;99371.25;;;13.18;76.32
10115;BME280;5097;43.260;27.812;2022-11-24T12:13:27;99356.63;;;13.13;76.99
10115;BME280;5097;43.260;27.812;2022-11-24T12:16:25;99344.97;;;12.80;78.61
10115;BME280;5097;43.260;27.812;2022-11-24T12:19:27;99357.94;;;13.07;77.16
10115;BME280;5097;43.260;27.812;2022-11-24T12:22:23;99339.13;;;12.99;77.01
10115;BME280;5097;43.260;27.812;2022-11-24T12:25:21;99378.22;;;13.66;74.92
10115;BME280;5097;43.260;27.812;2022-11-24T12:28:17;99357.41;;;13.26;74.37
10115;BME280;5097;43.260;27.812;2022-11-24T12:31:07;99348.88;;;13.56;74.54
10115;BME280;5097;43.260;27.812;2022-11-24T12:34:07;99390.75;;;13.75;74.21
10115;BME280;5097;43.260;27.812;2022-11-24T12:37:10;99354.91;;;12.65;78.25
10115;BME280;5097;43.260;27.812;2022-11-24T12:40:03;99369.03;;;13.12;75.79
10115;BME280;5097;43.260;27.812;2022-11-24T12:42:56;99389.03;;;13.05;77.18
10115;BME280;5097;43.260;27.812;2022-11-24T12:45:47;99362.16;;;12.26;78.27
10115;BME280;5097;43.260;27.812;2022-11-24T12:48:51;99370.69;;;11.92;80.75
10115;BME280;5097;43.260;27.812;2022-11-24T12:51:39;99396.75;;;11.98;81.13
10115;BME280;5097;43.260;27.812;2022-11-24T12:54:24;99388.72;;;11.61;80.42
10115;BME280;5097;43.260;27.812;2022-11-24T12:57:17;99372.59;;;11.13;82.65
10115;BME280;5097;43.260;27.812;2022-11-24T13:00:06;99401.41;;;11.95;81.86
10115;BME280;5097;43.260;27.812;2022-11-24T13:03:04;99361.38;;;11.86;81.54
10115;BME280;5097;43.260;27.812;2022-11-24T13:05:56;99370.94;;;11.63;82.70
10115;BME280;5097;43.260;27.812;2022-11-24T13:08:42;99377.38;;;11.85;80.52
10115;BME280;5097;43.260;27.812;2022-11-24T13:11:44;99392.81;;;12.17;79.83
10115;BME280;5097;43.260;27.812;2022-11-24T13:14:30;99363.34;;;12.21;79.10
10115;BME280;5097;43.260;27.812;2022-11-24T13:17:30;99392.53;;;11.57;79.38
10115;BME280;5097;43.260;27.812;2022-11-24T13:20:38;99395.91;;;11.59;80.25
10115;BME280;5097;43.260;27.812;2022-11-24T13:23:25;99374.31;;;11.65;77.91
10115;BME280;5097;43.260;27.812;2022-11-24T13:26:27;99416.44;;;11.68;79.19
10115;BME280;5097;43.260;27.812;2022-11-24T13:29:32;99398.22;;;12.15;78.67
10115;BME280;5097;43.260;27.812;2022-11-24T13:33:01;99406.59;;;12.70;77.09
10115;BME280;5097;43.260;27.812;2022-11-24T13:39:18;99379.78;;;12.14;76.86
10115;BME280;5097;43.260;27.812;2022-11-24T13:42:03;99413.47;;;12.49;75.27
10115;BME280;5097;43.260;27.812;2022-11-24T13:44:51;99433.25;;;11.42;80.00
10115;BME280;5097;43.260;27.812;2022-11-24T13:47:38;99426.66;;;11.21;78.62
10115;BME280;5097;43.260;27.812;2022-11-24T13:53:48;99390.50;;;10.69;78.07
10115;BME280;5097;43.260;27.812;2022-11-24T13:56:33;99429.94;;;10.57;79.43
10115;BME280;5097;43.260;27.812;2022-11-24T13:59:25;99436.22;;;10.28;80.47
10115;BME280;5097;43.260;27.812;2022-11-24T14:02:20;99419.31;;;10.45;79.90
10115;BME280;5097;43.260;27.812;2022-11-24T14:05:11;99445.59;;;10.61;79.16
10115;BME280;5097;43.260;27.812;2022-11-24T14:07:57;99410.09;;;10.23;79.78
10115;BME280;5097;43.260;27.812;2022-11-24T14:10:42;99444.31;;;10.24;79.04
10115;BME280;5097;43.260;27.812;2022-11-24T14:13:27;99441.88;;;10.50;77.69
10115;BME280;5097;43.260;27.812;2022-11-24T14:16:16;99434.69;;;10.38;77.44
10115;BME280;5097;43.260;27.812;2022-11-24T14:19:08;99414.06;;;10.30;77.07
10115;BME280;5097;43.260;27.812;2022-11-24T14:21:52;99418.88;;;10.09;76.61
10115;BME280;5097;43.260;27.812;2022-11-24T14:24:38;99444.00;;;10.85;77.51
10115;BME280;5097;43.260;27.812;2022-11-24T14:27:27;99413.72;;;10.64;75.16
10115;BME280;5097;43.260;27.812;2022-11-24T14:30:19;99439.00;;;10.81;75.36
10115;BME280;5097;43.260;27.812;2022-11-24T14:33:10;99456.28;;;10.86;74.41
10115;BME280;5097;43.260;27.812;2022-11-24T14:35:55;99458.25;;;10.55;75.52
10115;BME280;5097;43.260;27.812;2022-11-24T14:38:39;99460.06;;;10.40;76.04
10115;BME280;5097;43.260;27.812;2022-11-24T14:41:26;99365.84;;;9.70;76.85
10115;BME280;5097;43.260;27.812;2022-11-24T14:44:20;99469.09;;;10.51;76.51
10115;BME280;5097;43.260;27.812;2022-11-24T14:47:06;99465.53;;;10.37;76.29
10115;BME280;5097;43.260;27.812;2022-11-24T14:49:56;99469.81;;;10.67;76.49
10115;BME280;5097;43.260;27.812;2022-11-24T14:52:43;99437.25;;;10.39;76.57
10115;BME280;5097;43.260;27.812;2022-11-24T14:55:29;99464.13;;;10.17;76.26
10115;BME280;5097;43.260;27.812;2022-11-24T14:58:29;99469.53;;;10.72;76.35